Time;durP1;ratioP1;P1;durP2;ratioP2;P2;SDS_P1;SDS_P2;PMS_P1;PMS_P2;Temp;Humidity;BMP_temperature;BMP_pressure;BME280_temperature;BME280_humidity;BME280_pressure;Samples;Min_cycle;Max_cycle;Signal;HPM_P1;HPM_P2
2023/03/18 05:22:32;;;;;;;1.48;1.25;;;;;;;5.78;100.00;99847.06;5109059;27;20745;-68
2023/03/18 05:25:07;;;;;;;2.53;1.75;;;;;;;5.82;100.00;99857.19;5107965;28;20109;-68
2023/03/18 05:27:34;;;;;;;2.35;1.73;;;;;;;5.83;100.00;99850.91;5091357;28;20046;-69
2023/03/18 05:30:05;;;;;;;1.70;1.60;;;;;;;5.81;100.00;99858.19;5108102;28;20032;-68
2023/03/18 05:32:37;;;;;;;2.65;1.80;;;;;;;5.77;100.00;99853.34;5107174;28;20028;-69
2023/03/18 05:35:05;;;;;;;2.85;1.55;;;;;;;5.77;100.00;99858.63;5107869;28;20032;-69
2023/03/18 05:37:39;;;;;;;3.35;2.22;;;;;;;5.77;100.00;99858.63;5108042;28;20404;-68
2023/03/18 05:40:10;;;;;;;2.00;1.60;;;;;;;5.80;100.00;99861.78;5107834;28;20557;-68
2023/03/18 05:42:36;;;;;;;2.58;1.80;;;;;;;5.78;100.00;99857.63;5107562;28;20066;-68
2023/03/18 05:45:04;;;;;;;3.80;1.58;;;;;;;5.83;100.00;99865.94;5107758;28;20066;-68
2023/03/18 05:47:31;;;;;;;4.40;2.03;;;;;;;5.81;100.00;99860.81;5090826;28;20093;-68
2023/03/18 05:50:12;;;;;;;2.85;2.10;;;;;;;5.79;100.00;99859.28;5087429;28;20036;-69
2023/03/18 05:52:37;;;;;;;2.30;1.83;;;;;;;5.83;100.00;99871.25;5086631;28;20036;-68
2023/03/18 05:55:07;;;;;;;2.25;1.90;;;;;;;5.81;100.00;99873.22;5087491;28;20444;-69
2023/03/18 05:57:37;;;;;;;2.10;1.70;;;;;;;5.80;100.00;99871.53;5087174;28;20047;-68
2023/03/18 06:00:07;;;;;;;3.25;1.88;;;;;;;5.77;100.00;99872.66;5087017;28;20128;-68
2023/03/18 06:02:41;;;;;;;3.47;1.73;;;;;;;5.78;100.00;99876.97;5087744;28;20577;-68
2023/03/18 06:05:07;;;;;;;2.40;2.00;;;;;;;5.79;100.00;99875.97;5088300;28;20040;-68
2023/03/18 06:07:33;;;;;;;2.78;1.70;;;;;;;5.81;100.00;99875.84;5087045;28;20067;-68
2023/03/18 06:09:59;;;;;;;2.78;1.70;;;;;;;5.80;100.00;99872.34;5088323;28;20039;-68
2023/03/18 06:12:26;;;;;;;4.78;1.70;;;;;;;5.86;100.00;99871.75;5086147;28;20032;-68
2023/03/18 06:14:52;;;;;;;2.63;1.90;;;;;;;5.85;100.00;99879.84;5086946;28;20047;-68
2023/03/18 06:17:19;;;;;;;2.45;1.80;;;;;;;5.91;100.00;99880.09;5086605;28;20040;-68
2023/03/18 06:19:45;;;;;;;2.53;1.88;;;;;;;5.91;100.00;99879.25;5086817;28;20443;-68
2023/03/18 06:22:11;;;;;;;3.40;1.95;;;;;;;6.00;100.00;99883.66;5086720;28;20036;-69
2023/03/18 06:24:37;;;;;;;3.23;1.50;;;;;;;6.06;100.00;99888.31;5088009;28;20464;-70
2023/03/18 06:27:03;;;;;;;4.43;1.85;;;;;;;6.09;100.00;99890.66;5086893;28;20382;-69
2023/03/18 06:29:29;;;;;;;1.17;1.00;;;;;;;6.08;100.00;99890.81;5086956;28;20409;-62
2023/03/18 06:31:59;;;;;;;2.20;1.60;;;;;;;6.11;100.00;99891.31;5084025;28;20074;-64
2023/03/18 06:34:26;;;;;;;2.10;1.45;;;;;;;6.06;100.00;99896.25;5072629;28;20089;-64
2023/03/18 06:36:53;;;;;;;2.50;1.90;;;;;;;6.05;100.00;99893.75;5073386;28;20036;-64
2023/03/18 06:39:19;;;;;;;3.00;1.35;;;;;;;6.03;100.00;99893.09;5073401;28;20482;-64
2023/03/18 06:41:45;;;;;;;3.15;1.63;;;;;;;6.03;100.00;99904.50;5073491;28;20393;-62
2023/03/18 06:44:38;;;;;;;2.75;1.90;;;;;;;6.00;100.00;99904.81;5072963;28;20075;-62
2023/03/18 06:47:14;;;;;;;4.30;2.67;;;;;;;6.03;100.00;99901.84;5073365;28;20109;-62
2023/03/18 06:49:48;;;;;;;3.65;2.30;;;;;;;6.07;100.00;99897.09;5058372;28;20044;-55
2023/03/18 06:52:18;;;;;;;3.00;1.80;;;;;;;6.07;100.00;99897.09;5073365;28;20028;-55
2023/03/18 06:54:44;;;;;;;3.15;1.50;;;;;;;6.13;100.00;99902.59;5073540;28;20041;-62
2023/03/18 06:57:11;;;;;;;2.97;1.83;;;;;;;6.21;100.00;99899.19;5072963;28;20047;-63
2023/03/18 06:59:38;;;;;;;2.97;1.50;;;;;;;6.38;100.00;99900.13;5072977;28;20119;-61
2023/03/18 07:02:04;;;;;;;2.42;1.48;;;;;;;6.44;100.00;99904.81;5072535;28;20044;-62
2023/03/18 07:04:32;;;;;;;3.08;1.83;;;;;;;6.51;100.00;99903.19;5072383;28;20382;-62
2023/03/18 07:06:59;;;;;;;1.48;1.20;;;;;;;6.60;100.00;99912.88;5072778;28;20477;-63
2023/03/18 07:09:25;;;;;;;3.60;1.65;;;;;;;6.78;100.00;99918.94;5072822;28;20111;-62
2023/03/18 07:11:54;;;;;;;7.85;1.85;;;;;;;7.04;100.00;99915.41;5072408;28;20059;-62
2023/03/18 07:14:21;;;;;;;3.25;1.92;;;;;;;7.05;100.00;99912.63;5071855;28;20041;-63
2023/03/18 07:16:46;;;;;;;2.33;1.70;;;;;;;7.11;100.00;99921.75;5072647;28;20097;-63
2023/03/18 07:19:14;;;;;;;2.33;1.60;;;;;;;7.16;100.00;99908.84;5072575;28;20051;-62
2023/03/18 07:21:41;;;;;;;4.20;1.55;;;;;;;7.28;100.00;99923.47;5072563;28;20059;-62
2023/03/18 07:24:08;;;;;;;2.45;1.90;;;;;;;7.34;100.00;99925.47;5072992;28;20043;-62
2023/03/18 07:26:34;;;;;;;2.30;1.80;;;;;;;7.40;100.00;99931.13;5072412;28;20121;-61
2023/03/18 07:28:59;;;;;;;3.58;2.13;;;;;;;7.48;99.62;99929.34;5073749;28;20028;-63
2023/03/18 07:31:25;;;;;;;2.47;1.80;;;;;;;7.60;97.94;99921.91;5072242;28;20493;-61
2023/03/18 07:33:50;;;;;;;4.50;2.05;;;;;;;7.78;98.50;99929.75;5071634;28;20037;-62
2023/03/18 07:36:16;;;;;;;5.15;2.70;;;;;;;8.01;99.72;99936.06;5072202;28;20501;-62
2023/03/18 07:38:42;;;;;;;3.78;2.13;;;;;;;8.28;99.76;99934.09;5072496;28;20041;-62
2023/03/18 07:41:07;;;;;;;3.78;2.13;;;;;;;8.50;97.25;99935.28;5073418;28;20040;-62
2023/03/18 07:43:34;;;;;;;3.50;1.85;;;;;;;8.84;96.41;99941.22;5072335;28;20040;-63
2023/03/18 07:45:59;;;;;;;2.15;1.60;;;;;;;9.09;93.21;99935.84;5072567;28;20044;-63
2023/03/18 07:48:25;;;;;;;4.00;2.13;;;;;;;9.39;89.75;99936.88;5073225;28;20037;-62
2023/03/18 07:50:50;;;;;;;2.38;1.50;;;;;;;9.72;89.68;99937.56;5073316;28;20715;-62
2023/03/18 07:53:16;;;;;;;2.33;1.63;;;;;;;10.02;88.36;99925.22;5072353;28;20123;-64
2023/03/18 07:55:41;;;;;;;1.48;1.38;;;;;;;10.32;84.38;99934.19;5073108;28;20131;-63
2023/03/18 07:58:10;;;;;;;2.38;1.67;;;;;;;10.53;79.73;99931.66;5073176;28;20040;-64
2023/03/18 08:00:36;;;;;;;3.42;1.40;;;;;;;10.84;73.56;99936.84;5071567;28;20086;-63
2023/03/18 08:03:02;;;;;;;1.33;1.20;;;;;;;11.09;70.46;99923.28;5072066;28;20400;-63
2023/03/18 08:05:28;;;;;;;2.03;1.10;;;;;;;11.35;67.52;99931.63;5073046;28;20098;-64
2023/03/18 08:07:54;;;;;;;3.20;1.35;;;;;;;11.49;66.19;99927.28;5072942;28;20435;-63
2023/03/18 08:10:19;;;;;;;1.48;1.17;;;;;;;11.76;63.37;99936.41;5072765;28;20734;-64
2023/03/18 08:12:45;;;;;;;1.42;1.13;;;;;;;11.98;61.88;99929.25;5072047;28;20028;-65
2023/03/18 08:15:11;;;;;;;1.50;1.20;;;;;;;12.16;63.34;99935.00;5072785;28;20528;-64
2023/03/18 08:17:37;;;;;;;1.23;1.13;;;;;;;12.30;60.60;99916.44;5072543;28;20488;-63
2023/03/18 08:20:04;;;;;;;4.07;1.20;;;;;;;12.58;60.04;99927.13;5072684;28;20036;-64
2023/03/18 08:22:29;;;;;;;1.27;1.08;;;;;;;12.69;59.91;99934.63;5071839;28;20036;-64
2023/03/18 08:24:56;;;;;;;1.85;1.00;;;;;;;12.91;59.84;99941.56;5072377;28;20036;-65
2023/03/18 08:27:22;;;;;;;2.35;1.33;;;;;;;13.13;58.15;99936.97;5071293;28;20115;-64
2023/03/18 08:29:48;;;;;;;1.90;1.10;;;;;;;13.19;57.99;99922.81;5072342;28;20047;-65
2023/03/18 08:32:15;;;;;;;4.13;1.23;;;;;;;13.42;58.36;99924.38;5070428;28;20036;-65
2023/03/18 08:34:42;;;;;;;1.05;0.80;;;;;;;13.45;55.62;99927.50;5071739;28;20477;-64
2023/03/18 08:37:07;;;;;;;1.83;0.93;;;;;;;13.67;54.92;99938.88;5072297;28;20036;-64
2023/03/18 08:39:33;;;;;;;2.38;1.17;;;;;;;13.74;53.88;99934.38;5072366;28;20086;-65
2023/03/18 08:42:02;;;;;;;1.20;0.95;;;;;;;13.72;53.50;99940.97;5072263;28;20028;-64
2023/03/18 08:44:27;;;;;;;1.45;1.10;;;;;;;13.77;54.53;99949.22;5071370;28;20036;-63
2023/03/18 08:46:53;;;;;;;1.50;1.02;;;;;;;13.77;52.88;99947.38;5071968;28;20409;-52
2023/03/18 08:49:18;;;;;;;1.27;0.80;;;;;;;13.79;53.05;99934.59;5072467;28;20037;-63
2023/03/18 08:51:43;;;;;;;1.10;0.80;;;;;;;13.83;52.22;99933.19;5071991;28;20111;-63
2023/03/18 08:54:09;;;;;;;1.13;0.77;;;;;;;13.89;51.68;99933.38;5072374;28;20059;-64
2023/03/18 08:56:34;;;;;;;0.95;0.82;;;;;;;14.03;54.67;99927.06;5070653;28;20059;-67
2023/03/18 08:59:00;;;;;;;1.20;1.10;;;;;;;14.22;53.77;99936.16;5072131;28;20682;-63
2023/03/18 09:01:25;;;;;;;2.45;1.00;;;;;;;14.37;53.49;99934.91;5071952;28;20086;-65
2023/03/18 09:03:50;;;;;;;1.02;0.93;;;;;;;14.59;53.53;99930.19;5071425;28;20394;-63
2023/03/18 09:06:16;;;;;;;4.10;2.15;;;;;;;14.92;50.99;99922.09;5072092;28;20115;-64
2023/03/18 09:08:43;;;;;;;1.23;0.75;;;;;;;15.21;50.17;99914.63;5071800;28;20032;-63
2023/03/18 09:11:09;;;;;;;1.58;1.10;;;;;;;15.61;48.76;99917.97;5071865;28;20036;-64
2023/03/18 09:13:35;;;;;;;1.17;0.60;;;;;;;16.09;48.17;99914.00;5071287;28;20037;-66
2023/03/18 09:16:01;;;;;;;0.95;0.70;;;;;;;16.30;45.71;99913.66;5071807;28;20117;-66
2023/03/18 09:18:27;;;;;;;0.73;0.70;;;;;;;16.26;43.54;99905.22;5071672;28;20044;-63
2023/03/18 09:20:52;;;;;;;0.73;0.68;;;;;;;16.37;43.42;99894.81;5070598;28;20044;-65
2023/03/18 09:23:18;;;;;;;0.80;0.80;;;;;;;16.65;43.94;99907.78;5071145;28;20037;-65
2023/03/18 09:25:45;;;;;;;0.82;0.70;;;;;;;16.64;43.59;99901.59;5071727;28;20048;-65
2023/03/18 09:28:11;;;;;;;0.70;0.55;;;;;;;16.83;43.51;99907.84;5071805;28;20047;-63
2023/03/18 09:30:37;;;;;;;1.20;0.80;;;;;;;16.92;41.29;99895.75;5071675;28;20044;-63
2023/03/18 09:33:05;;;;;;;1.15;0.90;;;;;;;17.10;41.51;99897.63;5071062;28;20037;-65
2023/03/18 09:35:31;;;;;;;;;;;;;;;17.35;40.32;99884.09;5072290;28;20397;-65
2023/03/18 09:37:56;;;;;;;1.30;0.60;;;;;;;17.62;41.22;99888.09;5071815;28;19912;-65
2023/03/18 09:40:28;;;;;;;1.63;0.68;;;;;;;17.95;40.51;99886.00;5071701;28;20032;-65
2023/03/18 09:43:08;;;;;;;0.77;0.52;;;;;;;18.21;40.40;99880.22;5071176;28;20127;-53
2023/03/18 09:45:43;;;;;;;0.55;0.55;;;;;;;18.55;38.56;99880.47;5071387;28;20040;-52
2023/03/18 09:48:45;;;;;;;0.60;0.57;;;;;;;19.02;39.84;99881.28;5071439;28;20099;-53
2023/03/18 09:51:27;;;;;;;0.50;0.43;;;;;;;19.01;37.44;99881.53;5071563;28;20029;-53
2023/03/18 09:54:00;;;;;;;1.65;0.60;;;;;;;18.82;37.41;99875.44;5070915;28;20055;-51
2023/03/18 09:56:31;;;;;;;1.00;0.70;;;;;;;18.82;38.44;99876.25;5071554;28;20072;-56
2023/03/18 09:59:17;;;;;;;1.50;0.68;;;;;;;18.62;37.88;99873.09;5071699;28;20140;-49
2023/03/18 10:01:46;;;;;;;0.95;0.60;;;;;;;18.50;37.61;99875.78;5071648;28;20504;-49
2023/03/18 10:04:34;;;;;;;1.73;0.80;;;;;;;18.64;38.02;99877.19;5071240;28;20037;-51
2023/03/18 10:07:11;;;;;;;0.73;0.60;;;;;;;19.04;39.43;99871.09;5070751;28;20078;-51
2023/03/18 10:09:41;;;;;;;0.73;0.50;;;;;;;19.44;37.39;99871.09;5076928;28;20115;-52
2023/03/18 10:12:30;;;;;;;1.30;0.80;;;;;;;19.61;37.71;99865.75;5074836;28;20033;-52
2023/03/18 10:15:03;;;;;;;1.33;0.60;;;;;;;20.30;35.30;99869.16;5075202;28;20047;-55
2023/03/18 10:17:37;;;;;;;1.98;1.08;;;;;;;20.62;36.24;99876.69;5074727;28;20032;-49
2023/03/18 10:20:12;;;;;;;2.08;1.08;;;;;;;20.89;34.80;99881.41;5075041;28;20037;-52
2023/03/18 10:23:13;;;;;;;0.50;0.50;;;;;;;21.03;35.12;99875.38;5074257;28;20994;-50
2023/03/18 10:25:48;;;;;;;0.85;0.60;;;;;;;20.71;36.06;99885.22;5074850;28;20097;-51
2023/03/18 10:28:33;;;;;;;2.65;0.95;;;;;;;21.33;34.53;99885.00;5074964;28;20053;-51
2023/03/18 10:31:13;;;;;;;0.82;0.60;;;;;;;21.85;34.57;99884.50;5074676;28;20029;-57
2023/03/18 10:34:00;;;;;;;0.88;0.65;;;;;;;22.28;31.89;99874.59;5073882;28;20486;-64
2023/03/18 10:36:45;;;;;;;1.35;0.80;;;;;;;22.39;30.96;99874.41;5074620;28;20497;-64
2023/03/18 10:39:32;;;;;;;1.15;0.45;;;;;;;22.47;31.22;99865.78;5074778;28;20103;-65
2023/03/18 10:42:00;;;;;;;;;;;;;;;23.79;30.87;99870.22;5074925;28;20035;-64
2023/03/18 10:44:29;;;;;;;1.85;0.60;;;;;;;24.22;30.06;99868.09;5073777;28;19912;-65
2023/03/18 10:47:02;;;;;;;2.25;0.68;;;;;;;23.79;28.72;99868.31;5074517;28;20154;-63
2023/03/18 10:49:36;;;;;;;1.25;0.50;;;;;;;23.02;32.97;99872.69;5074483;28;20121;-64
2023/03/18 10:52:44;;;;;;;0.93;0.60;;;;;;;22.89;33.38;99861.47;5074430;28;20502;-64
2023/03/18 10:55:16;;;;;;;0.47;0.35;;;;;;;22.95;32.03;99860.41;5074424;28;20036;-62
2023/03/18 10:57:41;;;;;;;0.90;0.50;;;;;;;22.45;30.87;99865.25;5074376;28;20036;-64
2023/03/18 11:00:25;;;;;;;0.52;0.45;;;;;;;22.20;32.57;99865.03;5074336;28;20033;-65
2023/03/18 11:02:52;;;;;;;1.58;0.65;;;;;;;22.57;31.48;99869.66;5073469;28;20163;-63
2023/03/18 11:05:23;;;;;;;1.17;0.68;;;;;;;22.93;32.81;99862.56;5074221;28;20093;-65
2023/03/18 11:08:00;;;;;;;0.57;0.50;;;;;;;22.82;32.26;99867.13;5074200;28;20032;-64
2023/03/18 11:10:30;;;;;;;0.63;0.43;;;;;;;23.97;30.59;99867.00;5074162;28;20093;-65
2023/03/18 11:13:01;;;;;;;0.88;0.50;;;;;;;23.43;31.09;99861.97;5073301;28;20123;-65
2023/03/18 11:15:36;;;;;;;1.60;0.98;;;;;;;24.89;30.21;99856.84;5073924;28;20036;-65
2023/03/18 11:18:02;;;;;;;0.57;0.55;;;;;;;25.29;28.41;99857.00;5073854;28;20123;-65
2023/03/18 11:20:46;;;;;;;1.43;0.70;;;;;;;26.22;27.71;99856.19;5073788;28;20032;-64
2023/03/18 11:23:45;;;;;;;0.50;0.50;;;;;;;26.61;27.74;99858.03;5073140;28;20032;-64
2023/03/18 11:26:19;;;;;;;1.17;0.90;;;;;;;26.54;26.79;99857.53;5074023;28;20587;-64
2023/03/18 11:28:45;;;;;;;1.33;0.52;;;;;;;26.60;28.12;99851.75;5073950;28;20441;-64
2023/03/18 11:31:16;;;;;;;1.52;1.00;;;;;;;27.63;25.64;99860.34;5073663;28;20064;-64
2023/03/18 11:33:41;;;;;;;0.77;0.68;;;;;;;27.23;25.17;99859.81;5072730;28;20028;-65
2023/03/18 11:36:13;;;;;;;2.28;0.75;;;;;;;27.62;25.09;99856.00;5073477;28;20478;-65
2023/03/18 11:38:38;;;;;;;1.40;0.90;;;;;;;27.01;26.10;99854.03;5073497;28;20024;-65
2023/03/18 11:41:11;;;;;;;1.90;1.08;;;;;;;26.71;26.24;99845.06;5073641;28;20043;-66
2023/03/18 11:43:37;;;;;;;5.22;1.25;;;;;;;27.39;26.02;99859.63;5071575;28;20028;-65
2023/03/18 11:46:06;;;;;;;0.85;0.60;;;;;;;26.85;24.72;99847.13;5077369;28;20028;-65
2023/03/18 11:48:35;;;;;;;0.77;0.70;;;;;;;26.96;25.55;99851.38;5092308;28;20035;-65
2023/03/18 11:51:25;;;;;;;0.95;0.55;;;;;;;26.44;26.58;99837.44;5093403;28;20032;-65
2023/03/18 11:54:01;;;;;;;0.95;0.45;;;;;;;27.70;23.57;99830.75;5092679;28;20031;-65
2023/03/18 11:56:27;;;;;;;1.95;0.70;;;;;;;25.68;26.30;99841.53;5093629;28;20040;-65
2023/03/18 11:59:23;;;;;;;1.30;0.65;;;;;;;25.42;27.04;99832.69;5093340;28;20062;-63
2023/03/18 12:02:09;;;;;;;1.23;0.70;;;;;;;25.34;25.66;99833.28;5093349;28;20039;-63
2023/03/18 12:04:38;;;;;;;0.80;0.50;;;;;;;24.86;27.10;99841.09;5093023;28;20028;-60
2023/03/18 12:07:09;;;;;;;1.55;0.82;;;;;;;24.28;25.72;99840.63;5093942;28;20594;-62
2023/03/18 12:09:49;;;;;;;1.23;0.70;;;;;;;24.25;28.21;99837.63;5093406;28;20401;-61
2023/03/18 12:12:42;;;;;;;1.10;0.70;;;;;;;25.06;31.54;99834.78;5092852;28;20036;-60
2023/03/18 12:15:24;;;;;;;0.75;0.47;;;;;;;25.70;33.59;99833.09;5093155;28;20066;-66
2023/03/18 12:18:36;;;;;;;1.45;0.80;;;;;;;25.67;26.83;99829.00;5092900;28;20086;-66
2023/03/18 12:21:19;;;;;;;2.75;0.90;;;;;;;25.74;28.23;99827.88;5087312;28;20104;-68
2023/03/18 12:24:09;;;;;;;1.08;0.60;;;;;;;24.76;30.60;99819.31;5092102;28;20042;-67
2023/03/18 12:26:56;;;;;;;2.28;1.02;;;;;;;24.43;28.76;99823.47;5092809;28;20051;-67
2023/03/18 12:29:48;;;;;;;2.75;1.08;;;;;;;24.70;31.25;99820.41;5092984;28;20032;-68
2023/03/18 12:32:32;;;;;;;1.10;0.65;;;;;;;24.54;28.84;99813.41;5092179;28;20396;-67
2023/03/18 12:35:03;;;;;;;1.65;0.90;;;;;;;24.12;28.77;99806.34;5084922;28;20110;-67
2023/03/18 12:38:09;;;;;;;0.98;0.60;;;;;;;23.28;29.66;99813.03;5082048;28;20556;-68
2023/03/18 12:40:47;;;;;;;0.70;0.50;;;;;;;23.39;32.43;99806.50;5081659;28;20078;-66
2023/03/18 12:43:57;;;;;;;1.60;1.00;;;;;;;23.37;30.15;99803.25;5080863;28;20127;-66
2023/03/18 12:46:51;;;;;;;0.75;0.50;;;;;;;23.57;30.73;99813.34;5041854;28;20041;-66
2023/03/18 12:49:34;;;;;;;1.13;0.80;;;;;;;23.88;30.47;99795.19;5036479;28;20124;-67
2023/03/18 12:52:29;;;;;;;0.75;0.60;;;;;;;24.77;32.88;99801.06;5072713;28;20163;-66
2023/03/18 12:55:02;;;;;;;0.68;0.47;;;;;;;24.42;30.33;99786.47;5081395;28;20060;-67
2023/03/18 12:57:31;;;;;;;1.02;0.60;;;;;;;24.37;28.82;99789.19;5080534;28;20028;-67
2023/03/18 13:00:05;;;;;;;2.17;0.68;;;;;;;23.61;31.03;99792.75;5080660;28;20036;-67
2023/03/18 13:02:52;;;;;;;1.40;1.00;;;;;;;24.16;27.49;99793.81;5080228;28;20077;-67
2023/03/18 13:06:00;;;;;;;0.60;0.45;;;;;;;23.46;28.32;99796.19;5074642;28;20032;-67
2023/03/18 13:08:47;;;;;;;1.17;0.73;;;;;;;24.25;27.61;99797.59;5071649;28;20140;-67
2023/03/18 13:11:22;;;;;;;1.45;0.80;;;;;;;25.32;27.95;99796.50;5071964;28;20033;-67
2023/03/18 13:13:53;;;;;;;0.85;0.60;;;;;;;25.89;27.22;99782.22;5071333;28;20037;-66
2023/03/18 13:16:22;;;;;;;2.00;1.00;;;;;;;25.66;28.18;99791.91;5081581;28;20040;-67
2023/03/18 13:18:50;;;;;;;1.80;1.00;;;;;;;26.28;29.83;99777.78;5071636;28;20024;-64
2023/03/18 13:21:21;;;;;;;0.52;0.50;;;;;;;27.20;28.55;99781.13;5071746;28;20025;-67
2023/03/18 13:24:22;;;;;;;0.70;0.60;;;;;;;26.75;26.22;99779.75;5071282;28;20032;-67
2023/03/18 13:27:00;;;;;;;0.98;0.63;;;;;;;27.06;27.65;99788.44;5049562;28;20045;-65
2023/03/18 13:29:55;;;;;;;1.42;0.65;;;;;;;27.41;27.73;99786.31;5071739;28;20036;-65
2023/03/18 13:32:43;;;;;;;1.23;0.85;;;;;;;26.43;25.33;99788.59;5089882;28;20527;-67
2023/03/18 13:35:27;;;;;;;1.80;0.63;;;;;;;26.77;27.65;99785.75;5091767;28;20024;-63
2023/03/18 13:38:26;;;;;;;0.75;0.55;;;;;;;26.46;26.50;99779.81;5091806;28;20036;-65
2023/03/18 13:41:31;;;;;;;1.00;0.70;;;;;;;26.20;25.39;99771.84;5091887;28;20032;-64
2023/03/18 13:44:00;;;;;;;1.20;0.90;;;;;;;25.90;28.50;99770.22;5094509;28;20039;-66
2023/03/18 13:46:29;;;;;;;2.35;1.13;;;;;;;26.55;28.65;99778.06;5088043;28;20504;-64
2023/03/18 13:49:00;;;;;;;0.77;0.60;;;;;;;26.63;25.34;99769.25;5075747;28;20403;-64
2023/03/18 13:51:28;;;;;;;1.92;1.25;;;;;;;27.45;29.18;99779.97;5075510;28;20093;-64
2023/03/18 13:53:58;;;;;;;0.88;0.70;;;;;;;27.16;26.76;99773.81;5074878;28;20032;-62
2023/03/18 13:56:44;;;;;;;0.80;0.40;;;;;;;26.02;25.90;99775.31;5075454;28;20432;-64
2023/03/18 13:59:31;;;;;;;1.40;1.02;;;;;;;26.76;24.00;99776.72;5075449;28;20068;-62
2023/03/18 14:02:17;;;;;;;1.65;1.05;;;;;;;26.06;23.89;99776.34;5075238;28;20033;-65
2023/03/18 14:04:49;;;;;;;1.27;0.63;;;;;;;26.00;27.28;99771.22;5074876;28;20048;-65
2023/03/18 14:07:19;;;;;;;1.77;0.80;;;;;;;25.99;26.82;99773.13;5075218;28;20059;-64
2023/03/18 14:10:19;;;;;;;2.75;0.80;;;;;;;25.87;29.44;99765.31;5075204;28;20036;-64
2023/03/18 14:12:48;;;;;;;1.10;0.90;;;;;;;25.74;26.97;99762.44;5074254;28;20382;-64
2023/03/18 14:15:13;;;;;;;1.55;0.85;;;;;;;25.50;31.34;99754.97;5075251;28;20040;-65
2023/03/18 14:17:46;;;;;;;0.65;0.52;;;;;;;23.44;31.11;99760.31;5075174;28;20047;-65
2023/03/18 14:20:18;;;;;;;2.00;0.90;;;;;;;24.08;31.24;99759.84;5075323;28;20036;-65
2023/03/18 14:22:45;;;;;;;0.75;0.60;;;;;;;23.24;29.18;99760.28;5074239;28;20047;-65
2023/03/18 14:25:16;;;;;;;;;;;;;;;23.08;31.53;99761.31;5075277;28;20377;-66
2023/03/18 14:27:58;;;;;;;0.88;0.55;;;;;;;22.63;31.09;99746.47;5074852;28;20329;-66
2023/03/18 14:30:42;;;;;;;0.57;0.52;;;;;;;22.24;30.97;99744.09;5074861;28;20036;-65
2023/03/18 14:33:17;;;;;;;1.67;0.70;;;;;;;22.12;31.63;99755.13;5074128;28;20401;-64
2023/03/18 14:35:46;;;;;;;0.88;0.63;;;;;;;21.68;33.09;99743.66;5074509;28;20092;-64
2023/03/18 14:38:24;;;;;;;1.65;0.68;;;;;;;21.57;32.26;99742.72;5074999;28;20029;-63
2023/03/18 14:40:53;;;;;;;2.38;0.70;;;;;;;21.52;33.16;99739.19;5074671;28;20058;-66
2023/03/18 14:43:27;;;;;;;5.32;2.58;;;;;;;21.46;33.03;99726.66;5073860;28;20083;-56
2023/03/18 14:45:57;;;;;;;2.40;1.17;;;;;;;21.37;32.20;99735.22;5074492;28;20028;-54
2023/03/18 14:48:28;;;;;;;1.73;0.68;;;;;;;21.25;32.57;99739.13;5074440;28;20037;-52
2023/03/18 14:50:59;;;;;;;0.88;0.82;;;;;;;21.27;32.98;99737.81;5074428;28;20524;-55
2023/03/18 14:53:31;;;;;;;2.45;0.80;;;;;;;21.07;34.45;99746.56;5073263;28;20470;-52
2023/03/18 14:55:57;;;;;;;1.88;1.00;;;;;;;21.09;32.29;99741.69;5074382;28;20032;-53
2023/03/18 14:58:25;;;;;;;1.42;0.70;;;;;;;21.09;33.09;99733.56;5074376;28;20045;-69
2023/03/18 15:01:07;;;;;;;0.55;0.55;;;;;;;20.94;33.55;99746.94;5074316;28;20032;-69
2023/03/18 15:03:33;;;;;;;1.35;0.60;;;;;;;20.51;32.29;99737.75;5073625;28;20409;-69
2023/03/18 15:06:02;;;;;;;1.02;0.65;;;;;;;20.62;34.86;99737.91;5074467;28;20048;-69
2023/03/18 15:08:34;;;;;;;1.05;0.75;;;;;;;20.56;37.29;99734.31;5074143;28;20417;-70
2023/03/18 15:11:05;;;;;;;1.25;1.00;;;;;;;20.30;32.70;99728.50;5074007;28;20118;-69
2023/03/18 15:13:31;;;;;;;1.98;1.02;;;;;;;20.27;33.71;99730.88;5073719;28;20393;-69
2023/03/18 15:15:56;;;;;;;1.85;0.93;;;;;;;20.31;35.48;99732.03;5072720;28;20040;-69
2023/03/18 15:18:37;;;;;;;1.02;0.73;;;;;;;20.20;34.50;99727.53;5072651;28;20409;-69
2023/03/18 15:21:17;;;;;;;1.90;0.85;;;;;;;19.93;33.68;99730.94;5073719;28;20081;-69
2023/03/18 15:23:47;;;;;;;0.65;0.50;;;;;;;19.83;35.81;99738.91;5073236;28;20064;-69
2023/03/18 15:26:21;;;;;;;2.10;0.95;;;;;;;19.71;35.50;99730.06;5073622;28;20485;-69
2023/03/18 15:28:47;;;;;;;2.42;1.10;;;;;;;19.83;35.16;99736.19;5073673;28;20477;-69
2023/03/18 15:31:42;;;;;;;0.75;0.75;;;;;;;19.76;35.04;99733.66;5073588;28;20073;-69
2023/03/18 15:34:17;;;;;;;0.90;0.68;;;;;;;19.68;35.98;99725.13;5072792;28;20033;-69
2023/03/18 15:36:51;;;;;;;1.75;1.00;;;;;;;19.60;35.10;99729.06;5073519;28;20072;-70
2023/03/18 15:39:31;;;;;;;2.15;1.00;;;;;;;19.50;36.28;99728.88;5073596;28;20042;-69
2023/03/18 15:41:58;;;;;;;1.50;0.70;;;;;;;19.54;35.68;99732.69;5073447;28;20493;-68
2023/03/18 15:44:27;;;;;;;1.35;0.70;;;;;;;19.60;37.39;99726.34;5072680;28;20123;-70
2023/03/18 15:46:54;;;;;;;1.65;0.63;;;;;;;19.67;36.56;99729.72;5073263;28;20477;-69
2023/03/18 15:49:26;;;;;;;1.63;0.85;;;;;;;19.65;36.66;99731.84;5072229;28;20068;-68
2023/03/18 15:51:57;;;;;;;0.90;0.68;;;;;;;19.68;37.25;99720.53;5073544;28;20037;-68
2023/03/18 15:54:27;;;;;;;0.75;0.55;;;;;;;19.65;36.91;99726.44;5072756;28;20044;-69
2023/03/18 15:56:54;;;;;;;1.05;0.85;;;;;;;19.49;35.38;99721.81;5071784;28;20040;-69
2023/03/18 15:59:27;;;;;;;1.00;0.90;;;;;;;19.27;35.24;99720.88;5073060;28;20040;-69
2023/03/18 16:01:57;;;;;;;3.17;0.98;;;;;;;19.20;34.81;99727.25;5073244;28;20481;-69
2023/03/18 16:04:24;;;;;;;0.75;0.60;;;;;;;19.11;34.58;99717.91;5072063;28;20036;-69
2023/03/18 16:06:52;;;;;;;1.52;0.75;;;;;;;18.94;34.08;99714.34;5072269;28;20447;-69
2023/03/18 16:09:17;;;;;;;2.22;0.70;;;;;;;19.02;35.57;99721.22;5072893;28;20032;-69
2023/03/18 16:11:53;;;;;;;0.65;0.57;;;;;;;18.87;35.56;99719.06;5072773;28;20201;-69
2023/03/18 16:14:21;;;;;;;0.80;0.70;;;;;;;18.80;35.46;99724.59;5072672;28;20128;-69
2023/03/18 16:16:47;;;;;;;0.90;0.75;;;;;;;18.63;34.97;99727.19;5072754;28;20485;-69
2023/03/18 16:19:23;;;;;;;1.17;0.60;;;;;;;18.58;35.20;99723.56;5072561;28;20044;-68
2023/03/18 16:21:50;;;;;;;0.95;0.60;;;;;;;18.51;34.55;99726.38;5072528;28;20059;-69
2023/03/18 16:24:16;;;;;;;1.35;0.60;;;;;;;18.53;34.88;99735.09;5070901;28;20452;-69
2023/03/18 16:26:41;;;;;;;0.63;0.63;;;;;;;18.42;35.92;99731.34;5072542;28;20041;-70
2023/03/18 16:29:22;;;;;;;1.23;0.65;;;;;;;18.45;36.11;99740.81;5072580;28;20036;-70
2023/03/18 16:31:47;;;;;;;1.55;1.00;;;;;;;18.35;36.84;99737.91;5072515;28;20033;-71
2023/03/18 16:34:14;;;;;;;1.60;0.80;;;;;;;18.22;36.03;99743.56;5071774;28;20573;-68
2023/03/18 16:36:41;;;;;;;;;;;;;;;18.12;36.45;99749.50;5073260;28;20040;-69
2023/03/18 16:39:13;;;;;;;2.45;0.80;;;;;;;18.02;36.36;99755.50;5072396;28;20335;-70
2023/03/18 16:41:39;;;;;;;3.03;0.82;;;;;;;17.98;36.98;99758.88;5072411;28;20504;-71
2023/03/18 16:44:11;;;;;;;1.95;0.90;;;;;;;17.88;37.10;99754.09;5071762;28;20036;-71
2023/03/18 16:46:37;;;;;;;1.50;0.77;;;;;;;17.82;37.63;99755.03;5072097;28;20115;-69
2023/03/18 16:49:04;;;;;;;2.05;1.25;;;;;;;17.71;37.54;99755.78;5071995;28;20029;-71
2023/03/18 16:51:30;;;;;;;2.92;1.80;;;;;;;17.63;37.81;99762.31;5072270;28;20044;-61
2023/03/18 16:53:56;;;;;;;1.80;1.17;;;;;;;17.52;37.13;99765.81;5071701;28;20416;-61
2023/03/18 16:56:22;;;;;;;1.42;1.10;;;;;;;17.53;37.54;99767.44;5072162;28;20046;-63
2023/03/18 16:58:49;;;;;;;1.30;1.00;;;;;;;17.42;37.29;99770.94;5072394;28;20044;-54
2023/03/18 17:01:15;;;;;;;1.25;0.60;;;;;;;17.33;37.29;99768.53;5072338;28;20115;-59
2023/03/18 17:03:41;;;;;;;1.73;0.68;;;;;;;17.30;37.66;99773.59;5072529;28;20123;-57
2023/03/18 17:06:08;;;;;;;1.55;1.08;;;;;;;17.24;37.36;99772.63;5071860;28;20051;-57
2023/03/18 17:08:35;;;;;;;1.50;1.02;;;;;;;17.17;37.66;99773.78;5072141;28;20054;-63
2023/03/18 17:11:03;;;;;;;2.83;1.70;;;;;;;17.19;37.53;99777.84;5071940;28;20048;-64
2023/03/18 17:13:30;;;;;;;;;;;;;;;17.17;38.33;99777.28;5071676;28;20059;-65
2023/03/18 17:15:56;;;;;;;1.35;0.90;;;;;;;17.13;38.36;99780.63;5071806;28;19943;-66
2023/03/18 17:18:23;;;;;;;0.80;0.70;;;;;;;17.08;38.13;99779.47;5071817;28;20040;-66
2023/03/18 17:20:49;;;;;;;2.93;0.97;;;;;;;17.04;38.56;99791.72;5071985;28;20032;-66